sensor_id;sensor_type;location;lat;lon;timestamp;P1;durP1;ratioP1;P2;durP2;ratioP2
10461;SDS011;5278;42.656;23.374;2022-12-18T00:01:58;5.00;;;4.43;;
10461;SDS011;5278;42.656;23.374;2022-12-18T00:04:27;4.33;;;3.93;;
10461;SDS011;5278;42.656;23.374;2022-12-18T00:06:55;4.63;;;3.97;;
10461;SDS011;5278;42.656;23.374;2022-12-18T00:09:22;5.40;;;4.17;;
10461;SDS011;5278;42.656;23.374;2022-12-18T00:11:49;5.13;;;4.00;;
10461;SDS011;5278;42.656;23.374;2022-12-18T00:14:16;5.63;;;4.23;;
10461;SDS011;5278;42.656;23.374;2022-12-18T00:16:45;6.00;;;5.00;;
10461;SDS011;5278;42.656;23.374;2022-12-18T00:19:12;5.60;;;4.80;;
10461;SDS011;5278;42.656;23.374;2022-12-18T00:21:41;6.10;;;4.83;;
10461;SDS011;5278;42.656;23.374;2022-12-18T00:24:08;6.17;;;4.40;;
10461;SDS011;5278;42.656;23.374;2022-12-18T00:26:36;5.20;;;4.57;;
10461;SDS011;5278;42.656;23.374;2022-12-18T00:29:05;5.60;;;4.87;;
10461;SDS011;5278;42.656;23.374;2022-12-18T00:31:34;6.33;;;4.50;;
10461;SDS011;5278;42.656;23.374;2022-12-18T00:34:01;5.23;;;4.30;;
10461;SDS011;5278;42.656;23.374;2022-12-18T00:36:30;6.43;;;5.00;;
10461;SDS011;5278;42.656;23.374;2022-12-18T00:39:00;6.47;;;4.90;;
10461;SDS011;5278;42.656;23.374;2022-12-18T00:41:29;7.07;;;5.00;;
10461;SDS011;5278;42.656;23.374;2022-12-18T00:44:14;6.43;;;5.30;;
10461;SDS011;5278;42.656;23.374;2022-12-18T00:46:42;5.70;;;4.67;;
10461;SDS011;5278;42.656;23.374;2022-12-18T00:49:10;6.13;;;4.87;;
10461;SDS011;5278;42.656;23.374;2022-12-18T00:51:37;6.43;;;5.40;;
10461;SDS011;5278;42.656;23.374;2022-12-18T00:54:07;5.77;;;4.37;;
10461;SDS011;5278;42.656;23.374;2022-12-18T00:56:34;5.27;;;4.27;;
10461;SDS011;5278;42.656;23.374;2022-12-18T00:59:02;5.17;;;4.37;;
10461;SDS011;5278;42.656;23.374;2022-12-18T01:01:29;5.37;;;4.40;;
10461;SDS011;5278;42.656;23.374;2022-12-18T01:03:57;6.47;;;5.17;;
10461;SDS011;5278;42.656;23.374;2022-12-18T01:06:26;6.50;;;4.53;;
10461;SDS011;5278;42.656;23.374;2022-12-18T01:08:54;6.53;;;5.00;;
10461;SDS011;5278;42.656;23.374;2022-12-18T01:11:22;6.40;;;5.07;;
10461;SDS011;5278;42.656;23.374;2022-12-18T01:13:51;7.03;;;5.63;;
10461;SDS011;5278;42.656;23.374;2022-12-18T01:16:22;5.83;;;5.00;;
10461;SDS011;5278;42.656;23.374;2022-12-18T01:18:51;7.17;;;4.90;;
10461;SDS011;5278;42.656;23.374;2022-12-18T01:21:19;6.23;;;5.17;;
10461;SDS011;5278;42.656;23.374;2022-12-18T01:23:50;6.27;;;5.57;;
10461;SDS011;5278;42.656;23.374;2022-12-18T01:26:18;8.57;;;5.07;;
10461;SDS011;5278;42.656;23.374;2022-12-18T01:28:48;7.50;;;5.40;;
10461;SDS011;5278;42.656;23.374;2022-12-18T01:31:16;6.10;;;5.27;;
10461;SDS011;5278;42.656;23.374;2022-12-18T01:33:45;5.73;;;4.70;;
10461;SDS011;5278;42.656;23.374;2022-12-18T01:36:16;6.40;;;5.47;;
10461;SDS011;5278;42.656;23.374;2022-12-18T01:38:45;5.47;;;4.70;;
10461;SDS011;5278;42.656;23.374;2022-12-18T01:41:12;6.53;;;5.50;;
10461;SDS011;5278;42.656;23.374;2022-12-18T01:43:44;6.77;;;5.20;;
10461;SDS011;5278;42.656;23.374;2022-12-18T01:46:19;6.53;;;5.10;;
10461;SDS011;5278;42.656;23.374;2022-12-18T01:48:47;8.03;;;5.63;;
10461;SDS011;5278;42.656;23.374;2022-12-18T01:51:17;7.17;;;5.53;;
10461;SDS011;5278;42.656;23.374;2022-12-18T01:53:44;8.03;;;5.80;;
10461;SDS011;5278;42.656;23.374;2022-12-18T01:56:13;8.93;;;6.07;;
10461;SDS011;5278;42.656;23.374;2022-12-18T01:58:45;8.07;;;5.60;;
10461;SDS011;5278;42.656;23.374;2022-12-18T02:01:19;6.63;;;5.27;;
10461;SDS011;5278;42.656;23.374;2022-12-18T02:03:47;6.27;;;5.67;;
10461;SDS011;5278;42.656;23.374;2022-12-18T02:06:15;6.67;;;5.43;;
10461;SDS011;5278;42.656;23.374;2022-12-18T02:08:53;7.10;;;5.40;;
10461;SDS011;5278;42.656;23.374;2022-12-18T02:11:31;6.70;;;5.00;;
10461;SDS011;5278;42.656;23.374;2022-12-18T02:14:10;6.50;;;5.07;;
10461;SDS011;5278;42.656;23.374;2022-12-18T02:16:44;9.17;;;6.47;;
10461;SDS011;5278;42.656;23.374;2022-12-18T02:19:23;8.83;;;5.80;;
10461;SDS011;5278;42.656;23.374;2022-12-18T02:22:04;7.23;;;4.83;;
10461;SDS011;5278;42.656;23.374;2022-12-18T02:24:44;7.30;;;5.27;;
10461;SDS011;5278;42.656;23.374;2022-12-18T02:27:26;7.07;;;5.73;;
10461;SDS011;5278;42.656;23.374;2022-12-18T02:29:56;8.63;;;5.90;;
10461;SDS011;5278;42.656;23.374;2022-12-18T02:32:27;7.77;;;5.00;;
10461;SDS011;5278;42.656;23.374;2022-12-18T02:34:57;8.47;;;5.43;;
10461;SDS011;5278;42.656;23.374;2022-12-18T02:37:25;8.17;;;6.00;;
10461;SDS011;5278;42.656;23.374;2022-12-18T02:39:54;6.23;;;5.00;;
10461;SDS011;5278;42.656;23.374;2022-12-18T02:42:23;7.43;;;5.73;;
10461;SDS011;5278;42.656;23.374;2022-12-18T02:44:52;7.37;;;5.90;;
10461;SDS011;5278;42.656;23.374;2022-12-18T02:47:26;7.20;;;5.60;;
10461;SDS011;5278;42.656;23.374;2022-12-18T02:49:57;7.63;;;5.70;;
10461;SDS011;5278;42.656;23.374;2022-12-18T02:52:34;6.07;;;5.00;;
10461;SDS011;5278;42.656;23.374;2022-12-18T02:55:18;8.60;;;5.57;;
10461;SDS011;5278;42.656;23.374;2022-12-18T02:57:56;7.37;;;5.60;;
10461;SDS011;5278;42.656;23.374;2022-12-18T03:00:33;6.67;;;5.23;;
10461;SDS011;5278;42.656;23.374;2022-12-18T03:03:05;6.90;;;5.63;;
10461;SDS011;5278;42.656;23.374;2022-12-18T03:05:38;9.07;;;5.77;;
10461;SDS011;5278;42.656;23.374;2022-12-18T03:08:12;7.53;;;5.70;;
10461;SDS011;5278;42.656;23.374;2022-12-18T03:10:44;7.13;;;5.30;;
10461;SDS011;5278;42.656;23.374;2022-12-18T03:13:17;7.73;;;6.67;;
10461;SDS011;5278;42.656;23.374;2022-12-18T03:15:51;9.90;;;6.37;;
10461;SDS011;5278;42.656;23.374;2022-12-18T03:18:23;7.80;;;5.63;;
10461;SDS011;5278;42.656;23.374;2022-12-18T03:20:56;7.17;;;5.67;;
10461;SDS011;5278;42.656;23.374;2022-12-18T03:23:32;9.17;;;5.90;;
10461;SDS011;5278;42.656;23.374;2022-12-18T03:26:04;6.90;;;5.33;;
10461;SDS011;5278;42.656;23.374;2022-12-18T03:28:35;6.30;;;5.03;;
10461;SDS011;5278;42.656;23.374;2022-12-18T03:31:08;7.53;;;5.27;;
10461;SDS011;5278;42.656;23.374;2022-12-18T03:33:38;6.60;;;5.10;;
10461;SDS011;5278;42.656;23.374;2022-12-18T03:36:10;6.97;;;5.47;;
10461;SDS011;5278;42.656;23.374;2022-12-18T03:38:37;7.13;;;5.43;;
10461;SDS011;5278;42.656;23.374;2022-12-18T03:41:09;6.93;;;5.13;;
10461;SDS011;5278;42.656;23.374;2022-12-18T03:43:45;8.23;;;5.63;;
10461;SDS011;5278;42.656;23.374;2022-12-18T03:46:23;6.90;;;5.80;;
10461;SDS011;5278;42.656;23.374;2022-12-18T03:48:56;7.63;;;5.17;;
10461;SDS011;5278;42.656;23.374;2022-12-18T03:51:31;8.03;;;5.90;;
10461;SDS011;5278;42.656;23.374;2022-12-18T03:54:06;6.57;;;5.23;;
10461;SDS011;5278;42.656;23.374;2022-12-18T03:56:39;7.77;;;5.23;;
10461;SDS011;5278;42.656;23.374;2022-12-18T03:59:10;8.60;;;5.53;;
10461;SDS011;5278;42.656;23.374;2022-12-18T04:01:42;7.50;;;5.30;;
10461;SDS011;5278;42.656;23.374;2022-12-18T04:04:12;7.80;;;5.40;;
10461;SDS011;5278;42.656;23.374;2022-12-18T04:06:42;7.57;;;5.90;;
10461;SDS011;5278;42.656;23.374;2022-12-18T04:09:12;9.57;;;5.80;;
10461;SDS011;5278;42.656;23.374;2022-12-18T04:11:39;7.87;;;6.07;;
10461;SDS011;5278;42.656;23.374;2022-12-18T04:14:08;7.67;;;5.93;;
10461;SDS011;5278;42.656;23.374;2022-12-18T04:16:38;9.53;;;5.80;;
10461;SDS011;5278;42.656;23.374;2022-12-18T04:19:07;7.30;;;5.50;;
10461;SDS011;5278;42.656;23.374;2022-12-18T04:21:35;8.50;;;5.70;;
10461;SDS011;5278;42.656;23.374;2022-12-18T04:24:02;11.00;;;6.00;;
10461;SDS011;5278;42.656;23.374;2022-12-18T04:26:30;8.60;;;5.87;;
10461;SDS011;5278;42.656;23.374;2022-12-18T04:28:57;8.27;;;5.80;;
10461;SDS011;5278;42.656;23.374;2022-12-18T04:31:23;8.17;;;5.70;;
10461;SDS011;5278;42.656;23.374;2022-12-18T04:33:50;9.07;;;6.13;;
10461;SDS011;5278;42.656;23.374;2022-12-18T04:36:19;6.93;;;5.60;;
10461;SDS011;5278;42.656;23.374;2022-12-18T04:38:46;8.43;;;6.33;;
10461;SDS011;5278;42.656;23.374;2022-12-18T04:41:13;9.43;;;6.30;;
10461;SDS011;5278;42.656;23.374;2022-12-18T04:43:40;10.80;;;6.27;;
10461;SDS011;5278;42.656;23.374;2022-12-18T04:46:07;10.60;;;7.50;;
10461;SDS011;5278;42.656;23.374;2022-12-18T04:48:34;9.33;;;6.53;;
10461;SDS011;5278;42.656;23.374;2022-12-18T04:51:02;8.40;;;6.27;;
10461;SDS011;5278;42.656;23.374;2022-12-18T04:53:32;7.67;;;5.90;;
10461;SDS011;5278;42.656;23.374;2022-12-18T04:56:03;10.93;;;7.30;;
10461;SDS011;5278;42.656;23.374;2022-12-18T04:58:31;9.20;;;7.03;;
10461;SDS011;5278;42.656;23.374;2022-12-18T05:01:00;11.63;;;7.13;;
10461;SDS011;5278;42.656;23.374;2022-12-18T05:03:27;9.47;;;6.70;;
10461;SDS011;5278;42.656;23.374;2022-12-18T05:05:53;10.80;;;7.70;;
10461;SDS011;5278;42.656;23.374;2022-12-18T05:08:21;11.37;;;7.10;;
10461;SDS011;5278;42.656;23.374;2022-12-18T05:10:49;8.30;;;6.70;;
10461;SDS011;5278;42.656;23.374;2022-12-18T05:13:16;15.30;;;7.40;;
10461;SDS011;5278;42.656;23.374;2022-12-18T05:15:43;12.43;;;8.30;;
10461;SDS011;5278;42.656;23.374;2022-12-18T05:18:17;11.33;;;7.87;;
10461;SDS011;5278;42.656;23.374;2022-12-18T05:20:44;10.20;;;7.57;;
10461;SDS011;5278;42.656;23.374;2022-12-18T05:23:11;11.30;;;7.50;;
10461;SDS011;5278;42.656;23.374;2022-12-18T05:25:39;12.37;;;7.63;;
10461;SDS011;5278;42.656;23.374;2022-12-18T05:28:07;12.63;;;8.43;;
10461;SDS011;5278;42.656;23.374;2022-12-18T05:30:34;11.23;;;6.97;;
10461;SDS011;5278;42.656;23.374;2022-12-18T05:33:01;10.23;;;7.47;;
10461;SDS011;5278;42.656;23.374;2022-12-18T05:35:28;11.37;;;8.07;;
10461;SDS011;5278;42.656;23.374;2022-12-18T05:37:54;11.10;;;7.43;;
10461;SDS011;5278;42.656;23.374;2022-12-18T05:40:22;10.57;;;7.27;;
10461;SDS011;5278;42.656;23.374;2022-12-18T05:42:49;12.33;;;8.20;;
10461;SDS011;5278;42.656;23.374;2022-12-18T05:45:17;12.43;;;7.67;;
10461;SDS011;5278;42.656;23.374;2022-12-18T05:47:45;9.93;;;6.77;;
10461;SDS011;5278;42.656;23.374;2022-12-18T05:50:12;15.87;;;8.70;;
10461;SDS011;5278;42.656;23.374;2022-12-18T05:52:39;12.87;;;7.63;;
10461;SDS011;5278;42.656;23.374;2022-12-18T05:55:06;12.53;;;8.03;;
10461;SDS011;5278;42.656;23.374;2022-12-18T05:57:34;11.17;;;8.37;;
10461;SDS011;5278;42.656;23.374;2022-12-18T06:00:01;11.03;;;8.60;;
10461;SDS011;5278;42.656;23.374;2022-12-18T06:02:30;11.83;;;8.40;;
10461;SDS011;5278;42.656;23.374;2022-12-18T06:04:57;12.47;;;7.87;;
10461;SDS011;5278;42.656;23.374;2022-12-18T06:07:25;13.83;;;8.87;;
10461;SDS011;5278;42.656;23.374;2022-12-18T06:09:52;12.93;;;7.53;;
10461;SDS011;5278;42.656;23.374;2022-12-18T06:12:19;12.80;;;8.53;;
10461;SDS011;5278;42.656;23.374;2022-12-18T06:14:47;13.80;;;9.33;;
10461;SDS011;5278;42.656;23.374;2022-12-18T06:17:14;16.07;;;9.30;;
10461;SDS011;5278;42.656;23.374;2022-12-18T06:19:44;15.13;;;9.43;;
10461;SDS011;5278;42.656;23.374;2022-12-18T06:22:12;12.63;;;8.97;;
10461;SDS011;5278;42.656;23.374;2022-12-18T06:24:39;12.10;;;8.60;;
10461;SDS011;5278;42.656;23.374;2022-12-18T06:27:05;13.27;;;9.00;;
10461;SDS011;5278;42.656;23.374;2022-12-18T06:29:32;15.93;;;9.67;;
10461;SDS011;5278;42.656;23.374;2022-12-18T06:31:59;15.40;;;9.70;;
10461;SDS011;5278;42.656;23.374;2022-12-18T06:34:26;14.77;;;9.03;;
10461;SDS011;5278;42.656;23.374;2022-12-18T06:36:54;12.87;;;9.23;;
10461;SDS011;5278;42.656;23.374;2022-12-18T06:39:21;12.30;;;8.73;;
10461;SDS011;5278;42.656;23.374;2022-12-18T06:41:48;11.83;;;8.87;;
10461;SDS011;5278;42.656;23.374;2022-12-18T06:44:16;14.80;;;9.47;;
10461;SDS011;5278;42.656;23.374;2022-12-18T06:46:43;16.20;;;10.67;;
10461;SDS011;5278;42.656;23.374;2022-12-18T06:49:10;12.87;;;9.60;;
10461;SDS011;5278;42.656;23.374;2022-12-18T06:51:37;14.63;;;9.30;;
10461;SDS011;5278;42.656;23.374;2022-12-18T06:54:06;14.63;;;9.53;;
10461;SDS011;5278;42.656;23.374;2022-12-18T06:56:33;14.33;;;9.13;;
10461;SDS011;5278;42.656;23.374;2022-12-18T06:59:00;14.50;;;9.33;;
10461;SDS011;5278;42.656;23.374;2022-12-18T07:01:27;14.57;;;8.83;;
10461;SDS011;5278;42.656;23.374;2022-12-18T07:03:54;13.07;;;9.10;;
10461;SDS011;5278;42.656;23.374;2022-12-18T07:06:23;14.30;;;9.50;;
10461;SDS011;5278;42.656;23.374;2022-12-18T07:08:52;15.63;;;9.43;;
10461;SDS011;5278;42.656;23.374;2022-12-18T07:11:22;12.50;;;8.67;;
10461;SDS011;5278;42.656;23.374;2022-12-18T07:13:51;14.67;;;9.73;;
10461;SDS011;5278;42.656;23.374;2022-12-18T07:16:19;13.60;;;9.00;;
10461;SDS011;5278;42.656;23.374;2022-12-18T07:18:47;13.87;;;10.03;;
10461;SDS011;5278;42.656;23.374;2022-12-18T07:21:14;13.47;;;8.90;;
10461;SDS011;5278;42.656;23.374;2022-12-18T07:23:44;12.87;;;9.10;;
10461;SDS011;5278;42.656;23.374;2022-12-18T07:26:13;12.80;;;8.50;;
10461;SDS011;5278;42.656;23.374;2022-12-18T07:28:43;12.27;;;8.30;;
10461;SDS011;5278;42.656;23.374;2022-12-18T07:31:10;16.87;;;10.23;;
10461;SDS011;5278;42.656;23.374;2022-12-18T07:33:39;16.37;;;10.47;;
10461;SDS011;5278;42.656;23.374;2022-12-18T07:36:08;14.43;;;9.93;;
10461;SDS011;5278;42.656;23.374;2022-12-18T07:38:36;14.20;;;9.33;;
10461;SDS011;5278;42.656;23.374;2022-12-18T07:41:04;14.83;;;9.67;;
10461;SDS011;5278;42.656;23.374;2022-12-18T07:43:32;16.47;;;10.23;;
10461;SDS011;5278;42.656;23.374;2022-12-18T07:46:01;14.10;;;10.23;;
10461;SDS011;5278;42.656;23.374;2022-12-18T07:48:29;15.17;;;10.43;;
10461;SDS011;5278;42.656;23.374;2022-12-18T07:50:57;15.57;;;10.47;;
10461;SDS011;5278;42.656;23.374;2022-12-18T07:53:24;14.63;;;10.63;;
10461;SDS011;5278;42.656;23.374;2022-12-18T07:55:54;18.10;;;11.50;;
10461;SDS011;5278;42.656;23.374;2022-12-18T07:58:22;17.07;;;11.40;;
10461;SDS011;5278;42.656;23.374;2022-12-18T08:00:51;17.57;;;11.80;;
10461;SDS011;5278;42.656;23.374;2022-12-18T08:03:20;21.17;;;12.07;;
10461;SDS011;5278;42.656;23.374;2022-12-18T08:05:46;15.40;;;10.60;;
10461;SDS011;5278;42.656;23.374;2022-12-18T08:08:14;17.27;;;11.53;;
10461;SDS011;5278;42.656;23.374;2022-12-18T08:10:41;15.87;;;10.77;;
10461;SDS011;5278;42.656;23.374;2022-12-18T08:13:07;20.00;;;13.47;;
10461;SDS011;5278;42.656;23.374;2022-12-18T08:15:35;16.30;;;11.33;;
10461;SDS011;5278;42.656;23.374;2022-12-18T08:18:02;16.57;;;11.97;;
10461;SDS011;5278;42.656;23.374;2022-12-18T08:20:32;21.97;;;12.43;;
10461;SDS011;5278;42.656;23.374;2022-12-18T08:22:59;21.37;;;13.00;;
10461;SDS011;5278;42.656;23.374;2022-12-18T08:25:26;17.57;;;11.33;;
10461;SDS011;5278;42.656;23.374;2022-12-18T08:27:55;20.13;;;13.27;;
10461;SDS011;5278;42.656;23.374;2022-12-18T08:30:22;20.47;;;12.77;;
10461;SDS011;5278;42.656;23.374;2022-12-18T08:32:51;20.60;;;12.13;;
10461;SDS011;5278;42.656;23.374;2022-12-18T08:35:19;20.73;;;12.77;;
10461;SDS011;5278;42.656;23.374;2022-12-18T08:37:47;19.80;;;13.07;;
10461;SDS011;5278;42.656;23.374;2022-12-18T08:40:14;23.23;;;13.53;;
10461;SDS011;5278;42.656;23.374;2022-12-18T08:42:41;21.50;;;12.77;;
10461;SDS011;5278;42.656;23.374;2022-12-18T08:45:25;17.47;;;11.70;;
10461;SDS011;5278;42.656;23.374;2022-12-18T08:47:53;17.97;;;12.37;;
10461;SDS011;5278;42.656;23.374;2022-12-18T08:50:20;19.77;;;12.10;;
10461;SDS011;5278;42.656;23.374;2022-12-18T08:52:48;16.27;;;10.67;;
10461;SDS011;5278;42.656;23.374;2022-12-18T08:55:15;19.13;;;11.97;;
10461;SDS011;5278;42.656;23.374;2022-12-18T08:57:42;19.40;;;12.67;;
10461;SDS011;5278;42.656;23.374;2022-12-18T09:00:10;16.60;;;10.83;;
10461;SDS011;5278;42.656;23.374;2022-12-18T09:02:38;17.43;;;10.90;;
10461;SDS011;5278;42.656;23.374;2022-12-18T09:05:05;18.67;;;11.83;;
10461;SDS011;5278;42.656;23.374;2022-12-18T09:07:33;18.50;;;12.33;;
10461;SDS011;5278;42.656;23.374;2022-12-18T09:10:02;18.77;;;11.97;;
10461;SDS011;5278;42.656;23.374;2022-12-18T09:12:30;20.07;;;11.87;;
10461;SDS011;5278;42.656;23.374;2022-12-18T09:14:57;18.63;;;10.83;;
10461;SDS011;5278;42.656;23.374;2022-12-18T09:17:24;16.90;;;10.77;;
10461;SDS011;5278;42.656;23.374;2022-12-18T09:19:51;16.00;;;10.80;;
10461;SDS011;5278;42.656;23.374;2022-12-18T09:22:18;18.37;;;11.40;;
10461;SDS011;5278;42.656;23.374;2022-12-18T09:24:45;17.90;;;11.27;;
10461;SDS011;5278;42.656;23.374;2022-12-18T09:27:13;20.63;;;10.87;;
10461;SDS011;5278;42.656;23.374;2022-12-18T09:29:40;18.37;;;11.00;;
10461;SDS011;5278;42.656;23.374;2022-12-18T09:32:08;17.43;;;11.37;;
10461;SDS011;5278;42.656;23.374;2022-12-18T09:34:34;18.00;;;11.40;;
10461;SDS011;5278;42.656;23.374;2022-12-18T09:37:01;17.50;;;11.30;;
10461;SDS011;5278;42.656;23.374;2022-12-18T09:39:29;19.17;;;12.53;;
10461;SDS011;5278;42.656;23.374;2022-12-18T09:41:57;16.43;;;10.10;;
10461;SDS011;5278;42.656;23.374;2022-12-18T09:44:26;19.27;;;11.10;;
10461;SDS011;5278;42.656;23.374;2022-12-18T09:47:06;17.60;;;10.93;;
10461;SDS011;5278;42.656;23.374;2022-12-18T09:49:37;15.03;;;10.63;;
10461;SDS011;5278;42.656;23.374;2022-12-18T09:52:09;17.83;;;10.23;;
10461;SDS011;5278;42.656;23.374;2022-12-18T09:54:42;16.13;;;10.27;;
10461;SDS011;5278;42.656;23.374;2022-12-18T09:57:14;17.10;;;10.70;;
10461;SDS011;5278;42.656;23.374;2022-12-18T09:59:46;14.10;;;10.13;;
10461;SDS011;5278;42.656;23.374;2022-12-18T10:02:17;16.87;;;11.07;;
10461;SDS011;5278;42.656;23.374;2022-12-18T10:04:48;17.20;;;10.53;;
10461;SDS011;5278;42.656;23.374;2022-12-18T10:07:24;14.37;;;10.20;;
10461;SDS011;5278;42.656;23.374;2022-12-18T10:09:58;15.67;;;10.43;;
10461;SDS011;5278;42.656;23.374;2022-12-18T10:12:32;17.30;;;10.23;;
10461;SDS011;5278;42.656;23.374;2022-12-18T10:15:10;13.83;;;9.37;;
10461;SDS011;5278;42.656;23.374;2022-12-18T10:17:45;16.60;;;10.70;;
10461;SDS011;5278;42.656;23.374;2022-12-18T10:20:17;15.17;;;10.57;;
10461;SDS011;5278;42.656;23.374;2022-12-18T10:22:53;19.20;;;10.70;;
10461;SDS011;5278;42.656;23.374;2022-12-18T10:25:28;16.30;;;10.40;;
10461;SDS011;5278;42.656;23.374;2022-12-18T10:28:07;15.37;;;10.57;;
10461;SDS011;5278;42.656;23.374;2022-12-18T10:30:39;14.30;;;10.20;;
10461;SDS011;5278;42.656;23.374;2022-12-18T10:33:09;15.67;;;10.23;;
10461;SDS011;5278;42.656;23.374;2022-12-18T10:35:41;15.97;;;10.80;;
10461;SDS011;5278;42.656;23.374;2022-12-18T10:38:20;14.83;;;10.47;;
10461;SDS011;5278;42.656;23.374;2022-12-18T10:40:49;17.83;;;11.40;;
10461;SDS011;5278;42.656;23.374;2022-12-18T10:43:21;18.27;;;11.20;;
10461;SDS011;5278;42.656;23.374;2022-12-18T10:46:00;16.80;;;11.13;;
10461;SDS011;5278;42.656;23.374;2022-12-18T10:48:33;18.17;;;10.73;;
10461;SDS011;5278;42.656;23.374;2022-12-18T10:51:01;17.07;;;11.07;;
10461;SDS011;5278;42.656;23.374;2022-12-18T10:53:31;17.47;;;10.93;;
10461;SDS011;5278;42.656;23.374;2022-12-18T10:56:01;14.63;;;10.70;;
10461;SDS011;5278;42.656;23.374;2022-12-18T10:58:31;14.83;;;10.80;;
10461;SDS011;5278;42.656;23.374;2022-12-18T11:01:06;17.73;;;10.67;;
10461;SDS011;5278;42.656;23.374;2022-12-18T11:03:35;16.97;;;11.07;;
10461;SDS011;5278;42.656;23.374;2022-12-18T11:06:05;17.63;;;11.53;;
10461;SDS011;5278;42.656;23.374;2022-12-18T11:08:35;19.47;;;12.27;;
10461;SDS011;5278;42.656;23.374;2022-12-18T11:11:02;19.77;;;13.47;;
10461;SDS011;5278;42.656;23.374;2022-12-18T11:13:33;17.73;;;12.80;;
10461;SDS011;5278;42.656;23.374;2022-12-18T11:16:00;19.40;;;12.43;;
10461;SDS011;5278;42.656;23.374;2022-12-18T11:18:29;18.00;;;12.07;;
10461;SDS011;5278;42.656;23.374;2022-12-18T11:21:05;18.17;;;11.57;;
10461;SDS011;5278;42.656;23.374;2022-12-18T11:23:35;19.27;;;11.33;;
10461;SDS011;5278;42.656;23.374;2022-12-18T11:26:04;17.33;;;9.90;;
10461;SDS011;5278;42.656;23.374;2022-12-18T11:28:35;18.13;;;10.93;;
10461;SDS011;5278;42.656;23.374;2022-12-18T11:31:09;16.97;;;11.03;;
10461;SDS011;5278;42.656;23.374;2022-12-18T11:33:46;15.73;;;10.73;;
10461;SDS011;5278;42.656;23.374;2022-12-18T11:36:18;15.47;;;10.00;;
10461;SDS011;5278;42.656;23.374;2022-12-18T11:38:48;15.57;;;9.93;;
10461;SDS011;5278;42.656;23.374;2022-12-18T11:41:19;15.33;;;10.30;;
10461;SDS011;5278;42.656;23.374;2022-12-18T11:44:13;15.13;;;9.90;;
10461;SDS011;5278;42.656;23.374;2022-12-18T11:46:45;17.70;;;10.87;;
10461;SDS011;5278;42.656;23.374;2022-12-18T11:49:18;13.70;;;8.97;;
10461;SDS011;5278;42.656;23.374;2022-12-18T11:51:51;14.27;;;10.00;;
10461;SDS011;5278;42.656;23.374;2022-12-18T11:54:22;17.90;;;10.47;;
10461;SDS011;5278;42.656;23.374;2022-12-18T11:56:51;17.33;;;10.67;;
10461;SDS011;5278;42.656;23.374;2022-12-18T11:59:25;16.00;;;10.10;;
10461;SDS011;5278;42.656;23.374;2022-12-18T12:02:02;14.70;;;9.73;;
10461;SDS011;5278;42.656;23.374;2022-12-18T12:04:45;16.50;;;9.93;;
10461;SDS011;5278;42.656;23.374;2022-12-18T12:07:29;14.43;;;9.33;;
10461;SDS011;5278;42.656;23.374;2022-12-18T12:10:06;16.80;;;10.23;;
10461;SDS011;5278;42.656;23.374;2022-12-18T12:12:51;15.57;;;10.53;;
10461;SDS011;5278;42.656;23.374;2022-12-18T12:15:33;16.10;;;10.40;;
10461;SDS011;5278;42.656;23.374;2022-12-18T12:18:12;37.20;;;21.87;;
10461;SDS011;5278;42.656;23.374;2022-12-18T12:20:53;18.63;;;10.70;;
10461;SDS011;5278;42.656;23.374;2022-12-18T12:23:31;17.40;;;10.23;;
10461;SDS011;5278;42.656;23.374;2022-12-18T12:26:08;16.20;;;10.80;;
10461;SDS011;5278;42.656;23.374;2022-12-18T12:28:50;14.67;;;10.37;;
10461;SDS011;5278;42.656;23.374;2022-12-18T12:31:31;17.47;;;10.40;;
10461;SDS011;5278;42.656;23.374;2022-12-18T12:34:12;17.57;;;10.57;;
10461;SDS011;5278;42.656;23.374;2022-12-18T12:36:49;14.10;;;10.43;;
10461;SDS011;5278;42.656;23.374;2022-12-18T12:39:23;15.20;;;10.63;;
10461;SDS011;5278;42.656;23.374;2022-12-18T12:41:56;16.17;;;10.70;;
10461;SDS011;5278;42.656;23.374;2022-12-18T12:44:42;15.80;;;10.77;;
10461;SDS011;5278;42.656;23.374;2022-12-18T12:47:13;16.03;;;10.03;;
10461;SDS011;5278;42.656;23.374;2022-12-18T12:49:45;17.90;;;10.93;;
10461;SDS011;5278;42.656;23.374;2022-12-18T12:52:16;20.00;;;11.63;;
10461;SDS011;5278;42.656;23.374;2022-12-18T12:54:51;16.77;;;10.10;;
10461;SDS011;5278;42.656;23.374;2022-12-18T12:57:20;18.00;;;10.73;;
10461;SDS011;5278;42.656;23.374;2022-12-18T12:59:51;17.17;;;11.70;;
10461;SDS011;5278;42.656;23.374;2022-12-18T13:02:28;17.70;;;11.17;;
10461;SDS011;5278;42.656;23.374;2022-12-18T13:05:05;21.03;;;11.30;;
10461;SDS011;5278;42.656;23.374;2022-12-18T13:07:47;16.70;;;10.70;;
10461;SDS011;5278;42.656;23.374;2022-12-18T13:10:24;18.53;;;11.73;;
10461;SDS011;5278;42.656;23.374;2022-12-18T13:13:02;17.93;;;11.20;;
10461;SDS011;5278;42.656;23.374;2022-12-18T13:15:30;20.70;;;12.17;;
10461;SDS011;5278;42.656;23.374;2022-12-18T13:20:48;18.23;;;11.17;;
10461;SDS011;5278;42.656;23.374;2022-12-18T13:23:27;16.43;;;11.37;;
10461;SDS011;5278;42.656;23.374;2022-12-18T13:25:57;18.07;;;11.23;;
10461;SDS011;5278;42.656;23.374;2022-12-18T13:34:19;24.60;;;15.73;;
10461;SDS011;5278;42.656;23.374;2022-12-18T13:36:47;20.47;;;11.80;;
10461;SDS011;5278;42.656;23.374;2022-12-18T13:45:37;18.33;;;11.40;;
10461;SDS011;5278;42.656;23.374;2022-12-18T13:48:16;15.83;;;10.97;;
10461;SDS011;5278;42.656;23.374;2022-12-18T13:50:48;17.63;;;11.27;;
10461;SDS011;5278;42.656;23.374;2022-12-18T13:53:19;17.70;;;12.93;;
10461;SDS011;5278;42.656;23.374;2022-12-18T13:55:51;16.03;;;11.13;;
10461;SDS011;5278;42.656;23.374;2022-12-18T13:58:18;19.50;;;12.57;;
10461;SDS011;5278;42.656;23.374;2022-12-18T14:00:45;20.00;;;13.37;;
10461;SDS011;5278;42.656;23.374;2022-12-18T14:03:16;18.43;;;11.83;;
10461;SDS011;5278;42.656;23.374;2022-12-18T14:05:46;21.00;;;13.33;;
10461;SDS011;5278;42.656;23.374;2022-12-18T14:08:20;23.70;;;13.90;;
10461;SDS011;5278;42.656;23.374;2022-12-18T14:10:48;18.27;;;12.13;;
10461;SDS011;5278;42.656;23.374;2022-12-18T14:13:21;18.13;;;11.73;;
10461;SDS011;5278;42.656;23.374;2022-12-18T14:15:50;16.80;;;11.17;;
10461;SDS011;5278;42.656;23.374;2022-12-18T14:18:21;17.10;;;11.47;;
10461;SDS011;5278;42.656;23.374;2022-12-18T14:20:51;15.57;;;11.30;;
10461;SDS011;5278;42.656;23.374;2022-12-18T14:23:30;17.20;;;11.67;;
10461;SDS011;5278;42.656;23.374;2022-12-18T14:26:00;17.63;;;11.60;;
10461;SDS011;5278;42.656;23.374;2022-12-18T14:28:28;16.03;;;10.20;;
10461;SDS011;5278;42.656;23.374;2022-12-18T14:30:55;19.50;;;11.37;;
10461;SDS011;5278;42.656;23.374;2022-12-18T14:33:23;18.83;;;10.37;;
10461;SDS011;5278;42.656;23.374;2022-12-18T14:35:54;14.73;;;10.50;;
10461;SDS011;5278;42.656;23.374;2022-12-18T14:38:25;19.47;;;12.80;;
10461;SDS011;5278;42.656;23.374;2022-12-18T14:40:59;16.57;;;9.57;;
10461;SDS011;5278;42.656;23.374;2022-12-18T14:43:31;18.57;;;11.43;;
10461;SDS011;5278;42.656;23.374;2022-12-18T14:46:01;17.43;;;10.57;;
10461;SDS011;5278;42.656;23.374;2022-12-18T14:48:33;17.67;;;10.97;;
10461;SDS011;5278;42.656;23.374;2022-12-18T14:51:04;18.53;;;10.33;;
10461;SDS011;5278;42.656;23.374;2022-12-18T14:53:36;15.13;;;9.93;;
10461;SDS011;5278;42.656;23.374;2022-12-18T14:58:50;16.07;;;11.33;;
10461;SDS011;5278;42.656;23.374;2022-12-18T15:01:20;16.43;;;10.03;;
10461;SDS011;5278;42.656;23.374;2022-12-18T15:03:50;14.27;;;9.70;;
10461;SDS011;5278;42.656;23.374;2022-12-18T15:06:18;16.57;;;9.83;;
10461;SDS011;5278;42.656;23.374;2022-12-18T15:08:53;19.47;;;11.63;;
10461;SDS011;5278;42.656;23.374;2022-12-18T15:11:27;15.80;;;10.50;;